createdAt,value
2023-03-20T00:02:20.843Z,-0.41
2023-03-20T00:04:47.893Z,-0.21
2023-03-20T00:07:14.890Z,-0.15
2023-03-20T00:09:42.545Z,-0.17
2023-03-20T00:12:15.734Z,-0.21
2023-03-20T00:14:42.892Z,-0.21
2023-03-20T00:17:18.436Z,-0.21
2023-03-20T00:19:46.255Z,-0.23
2023-03-20T00:22:13.188Z,-0.22
2023-03-20T00:24:40.149Z,-0.21
2023-03-20T00:27:07.507Z,-0.17
2023-03-20T00:29:34.749Z,-0.30
2023-03-20T00:32:01.740Z,-0.17
2023-03-20T00:34:29.781Z,-0.18
2023-03-20T00:36:58.274Z,-0.29
2023-03-20T00:39:25.694Z,-0.26
2023-03-20T00:41:58.672Z,-0.20
2023-03-20T00:44:28.412Z,-0.21
2023-03-20T00:46:58.525Z,-0.22
2023-03-20T00:49:28.707Z,-0.34
2023-03-20T00:51:56.512Z,-0.27
2023-03-20T00:54:25.491Z,-0.23
2023-03-20T00:57:00.334Z,-0.22
2023-03-20T00:59:32.046Z,-0.33
2023-03-20T01:02:01.480Z,-0.20
2023-03-20T01:04:37.489Z,-0.16
2023-03-20T01:07:06.309Z,-0.16
2023-03-20T01:09:33.439Z,-0.12
2023-03-20T01:12:01.574Z,-0.20
2023-03-20T01:14:28.752Z,-0.38
2023-03-20T01:16:56.110Z,-0.17
2023-03-20T01:19:23.216Z,-0.16
2023-03-20T01:21:50.883Z,-0.19
2023-03-20T01:24:17.940Z,-0.12
2023-03-20T01:26:46.432Z,-0.25
2023-03-20T01:29:22.397Z,-0.15
2023-03-20T01:31:51.448Z,-0.17
2023-03-20T01:34:21.295Z,-0.15
2023-03-20T01:36:57.688Z,-0.14
2023-03-20T01:39:35.200Z,-0.24
2023-03-20T01:42:05.935Z,-0.28
2023-03-20T01:44:36.099Z,-0.26
2023-03-20T01:47:11.713Z,-0.22
2023-03-20T01:50:33.135Z,-0.17
2023-03-20T01:53:19.301Z,-0.21
2023-03-20T01:55:56.269Z,-0.62
2023-03-20T01:58:32.458Z,-0.31
2023-03-20T02:01:00.316Z,-0.25
2023-03-20T02:03:27.666Z,-0.29
2023-03-20T02:06:08.586Z,-0.69
2023-03-20T02:08:54.383Z,-0.33
2023-03-20T02:11:25.591Z,-0.49
2023-03-20T02:13:55.473Z,-0.65
2023-03-20T02:16:24.328Z,-0.59
2023-03-20T02:19:08.012Z,-0.59
2023-03-20T02:21:44.228Z,-0.58
2023-03-20T02:24:15.540Z,-0.61
2023-03-20T02:27:08.678Z,-0.57
2023-03-20T02:30:07.480Z,-0.75
2023-03-20T02:32:39.861Z,-1.06
2023-03-20T02:35:35.093Z,-0.67
2023-03-20T02:38:21.193Z,-0.66
2023-03-20T02:41:04.183Z,-0.72
2023-03-20T02:44:01.409Z,-0.83
2023-03-20T02:46:34.647Z,-0.79
2023-03-20T02:49:16.502Z,-0.80
2023-03-20T02:52:11.869Z,-0.89
2023-03-20T02:54:55.066Z,-0.88
2023-03-20T02:57:44.485Z,-0.88
2023-03-20T03:00:21.212Z,-0.91
2023-03-20T03:02:55.441Z,-0.95
2023-03-20T03:05:31.222Z,-1.03
2023-03-20T03:08:01.198Z,-1.04
2023-03-20T03:10:58.325Z,-0.97
2023-03-20T03:13:29.509Z,-0.97
2023-03-20T03:16:04.434Z,-1.05
2023-03-20T03:18:34.648Z,-1.00
2023-03-20T03:21:06.885Z,-1.06
2023-03-20T03:23:44.785Z,-0.89
2023-03-20T03:26:36.385Z,-0.81
2023-03-20T03:29:11.904Z,-0.88
2023-03-20T03:31:39.445Z,-0.86
2023-03-20T03:34:09.361Z,-0.92
2023-03-20T03:36:41.524Z,-0.96
2023-03-20T03:39:25.013Z,-1.07
2023-03-20T03:41:52.835Z,-0.94
2023-03-20T03:44:35.652Z,-0.91
2023-03-20T03:47:32.462Z,-0.76
2023-03-20T03:50:06.312Z,-0.72
2023-03-20T03:52:35.183Z,-0.66
2023-03-20T03:55:14.913Z,-0.58
2023-03-20T03:58:04.896Z,-0.51
2023-03-20T04:00:34.250Z,-0.45
2023-03-20T04:03:01.637Z,-0.38
2023-03-20T04:05:31.944Z,-0.31
2023-03-20T04:08:01.514Z,-0.30
2023-03-20T04:10:28.607Z,-0.22
2023-03-20T04:12:55.577Z,-0.10
2023-03-20T04:15:22.568Z,-0.04
2023-03-20T04:17:49.810Z,0.05
2023-03-20T04:20:17.866Z,0.11
2023-03-20T04:22:46.717Z,0.16
2023-03-20T04:25:22.502Z,0.20
2023-03-20T04:27:52.727Z,0.26
2023-03-20T04:30:53.639Z,0.34
2023-03-20T04:33:33.703Z,0.40
2023-03-20T04:36:26.917Z,0.50
2023-03-20T04:38:57.582Z,0.44
2023-03-20T04:41:25.759Z,0.53
2023-03-20T04:43:55.772Z,0.84
2023-03-20T04:46:23.287Z,0.99
2023-03-20T04:48:51.079Z,1.13
2023-03-20T04:51:19.057Z,1.23
2023-03-20T04:53:49.965Z,1.37
2023-03-20T04:56:17.612Z,1.50
2023-03-20T04:58:46.596Z,1.64
2023-03-20T05:01:14.683Z,1.80
2023-03-20T05:03:42.113Z,1.96
2023-03-20T05:06:09.850Z,2.09
2023-03-20T05:08:40.290Z,2.23
2023-03-20T05:11:08.370Z,2.35
2023-03-20T05:13:55.916Z,2.46
2023-03-20T05:16:41.271Z,2.58
2023-03-20T05:19:31.268Z,2.65
2023-03-20T05:22:04.375Z,2.59
2023-03-20T05:24:51.725Z,2.44
2023-03-20T05:27:37.645Z,2.78
2023-03-20T05:30:24.581Z,2.88
2023-03-20T05:32:52.545Z,2.96
2023-03-20T05:35:29.093Z,3.04
2023-03-20T05:38:05.836Z,3.00
2023-03-20T05:41:00.914Z,3.03
2023-03-20T05:43:37.320Z,3.03
2023-03-20T05:46:33.013Z,3.13
2023-03-20T05:49:09.523Z,3.37
2023-03-20T05:51:57.125Z,3.63
2023-03-20T05:54:31.738Z,4.07
2023-03-20T05:57:08.590Z,4.48
2023-03-20T05:59:50.643Z,5.11
2023-03-20T06:02:47.762Z,5.84
2023-03-20T06:05:37.909Z,6.25
2023-03-20T06:08:05.837Z,6.51
2023-03-20T06:10:33.204Z,6.75
2023-03-20T06:13:01.336Z,6.95
2023-03-20T06:15:29.852Z,7.15
2023-03-20T06:18:05.804Z,7.23
2023-03-20T06:20:36.065Z,7.46
2023-03-20T06:23:04.840Z,7.44
2023-03-20T06:25:31.865Z,7.51
2023-03-20T06:27:59.493Z,7.27
2023-03-20T06:30:27.190Z,7.35
2023-03-20T06:32:55.048Z,7.43
2023-03-20T06:35:25.174Z,7.75
2023-03-20T06:37:52.171Z,8.28
2023-03-20T06:40:23.633Z,8.92
2023-03-20T06:42:51.290Z,8.82
2023-03-20T06:45:19.592Z,8.93
2023-03-20T06:48:01.131Z,9.34
2023-03-20T06:50:28.596Z,9.69
2023-03-20T06:52:59.384Z,10.04
2023-03-20T06:55:32.077Z,10.64
2023-03-20T06:57:59.117Z,10.87
2023-03-20T07:00:27.468Z,11.74
2023-03-20T07:02:54.627Z,12.27
2023-03-20T07:05:22.406Z,12.91
2023-03-20T07:07:49.664Z,13.45
2023-03-20T07:10:17.435Z,13.48
2023-03-20T07:12:51.085Z,14.02
2023-03-20T07:15:19.135Z,14.48
2023-03-20T07:17:46.314Z,15.04
2023-03-20T07:20:14.335Z,14.90
2023-03-20T07:22:42.060Z,14.57
2023-03-20T07:25:39.450Z,14.55
2023-03-20T07:28:09.054Z,14.75
2023-03-20T07:30:38.824Z,14.79
2023-03-20T07:33:06.577Z,14.60
2023-03-20T07:35:35.047Z,14.09
2023-03-20T07:38:02.797Z,13.60
2023-03-20T07:40:29.987Z,13.23
2023-03-20T07:43:02.075Z,12.84
2023-03-20T07:45:50.216Z,12.18
2023-03-20T07:48:19.711Z,11.84
2023-03-20T07:50:46.730Z,11.82
2023-03-20T07:53:13.878Z,12.01
2023-03-20T07:55:40.873Z,12.83
2023-03-20T07:58:10.612Z,13.68
2023-03-20T08:00:37.895Z,14.56
2023-03-20T08:03:05.450Z,15.17
2023-03-20T08:05:33.266Z,15.91
2023-03-20T08:08:00.461Z,16.09
2023-03-20T08:10:27.813Z,15.65
2023-03-20T08:12:55.146Z,15.56
2023-03-20T08:15:22.446Z,16.04
2023-03-20T08:17:49.780Z,16.20
2023-03-20T08:20:17.606Z,16.60
2023-03-20T08:22:45.229Z,16.89
2023-03-20T08:25:12.576Z,17.41
2023-03-20T08:27:40.250Z,17.84
2023-03-20T08:30:09.039Z,17.82
2023-03-20T08:32:36.696Z,17.82
2023-03-20T08:35:03.770Z,17.33
2023-03-20T08:37:30.771Z,17.14
2023-03-20T08:39:57.749Z,17.73
2023-03-20T08:42:24.784Z,18.54
2023-03-20T08:44:52.074Z,19.17
2023-03-20T08:47:19.741Z,19.80
2023-03-20T08:49:47.215Z,20.13
2023-03-20T08:52:14.207Z,20.23
2023-03-20T08:54:41.233Z,20.38
2023-03-20T08:57:08.221Z,20.19
2023-03-20T08:59:35.670Z,20.14
2023-03-20T09:02:02.737Z,20.51
2023-03-20T09:04:29.990Z,20.19
2023-03-20T09:06:57.163Z,18.99
2023-03-20T09:09:29.687Z,18.67
2023-03-20T09:12:01.793Z,19.09
2023-03-20T09:14:29.431Z,19.17
2023-03-20T09:16:56.474Z,19.12
2023-03-20T09:19:23.522Z,18.68
2023-03-20T09:21:50.622Z,18.90
2023-03-20T09:24:17.590Z,18.71
2023-03-20T09:26:44.538Z,18.54
2023-03-20T09:29:11.732Z,18.39
2023-03-20T09:31:38.780Z,18.36
2023-03-20T09:34:06.409Z,17.85
2023-03-20T09:36:33.803Z,18.54
2023-03-20T09:39:01.041Z,19.08
2023-03-20T09:41:28.877Z,18.94
2023-03-20T09:44:09.741Z,18.79
2023-03-20T09:47:19.699Z,18.92
2023-03-20T09:50:05.394Z,19.08
2023-03-20T09:52:41.087Z,18.99
2023-03-20T09:55:26.614Z,18.98
2023-03-20T09:57:58.498Z,18.34
2023-03-20T10:00:28.975Z,18.18
2023-03-20T10:03:02.229Z,18.13
2023-03-20T10:05:38.196Z,18.11
2023-03-20T10:08:07.856Z,17.65
2023-03-20T10:10:53.256Z,16.94
2023-03-20T10:13:38.357Z,16.88
2023-03-20T10:16:49.521Z,16.16
2023-03-20T10:19:21.578Z,15.88
2023-03-20T10:21:54.103Z,15.91
2023-03-20T10:24:29.033Z,15.84
2023-03-20T10:27:00.938Z,16.24
2023-03-20T10:29:45.571Z,16.54
2023-03-20T10:32:28.718Z,16.74
2023-03-20T10:35:13.860Z,16.88
2023-03-20T10:38:02.439Z,17.00
2023-03-20T10:40:36.615Z,17.01
2023-03-20T10:43:14.885Z,16.87
2023-03-20T10:45:46.772Z,15.74
2023-03-20T10:48:37.452Z,15.68
2023-03-20T10:51:04.989Z,15.41
2023-03-20T10:53:35.140Z,15.35
2023-03-20T10:56:16.782Z,15.23
2023-03-20T10:58:47.374Z,14.81
2023-03-20T11:01:14.851Z,15.02
2023-03-20T11:03:41.983Z,15.55
2023-03-20T11:06:28.949Z,16.04
2023-03-20T11:08:56.023Z,16.65
2023-03-20T11:11:28.976Z,16.77
2023-03-20T11:13:56.344Z,17.03
2023-03-20T11:16:27.368Z,17.20
2023-03-20T11:18:55.126Z,16.95
2023-03-20T11:21:29.039Z,16.99
2023-03-20T11:23:56.492Z,16.89
2023-03-20T11:26:42.170Z,16.64
2023-03-20T11:29:29.634Z,16.21
2023-03-20T11:32:03.727Z,16.58
2023-03-20T11:34:33.613Z,16.34
2023-03-20T11:37:10.591Z,16.18
2023-03-20T11:39:42.665Z,16.15
2023-03-20T11:42:24.739Z,15.77
2023-03-20T11:45:18.193Z,15.59
2023-03-20T11:47:51.013Z,14.98
2023-03-20T11:50:37.313Z,14.80
2023-03-20T11:53:20.005Z,14.55
2023-03-20T11:56:03.836Z,14.23
2023-03-20T11:58:31.231Z,13.86
2023-03-20T12:00:58.582Z,13.62
2023-03-20T12:04:02.604Z,13.32
2023-03-20T12:06:46.858Z,12.97
2023-03-20T12:09:32.079Z,12.86
2023-03-20T12:12:37.149Z,12.76
2023-03-20T12:15:13.148Z,12.75
2023-03-20T12:17:57.004Z,12.58
2023-03-20T12:20:45.474Z,12.29
2023-03-20T12:23:29.189Z,12.01
2023-03-20T12:26:04.273Z,12.03
2023-03-20T12:28:37.275Z,12.07
2023-03-20T12:31:19.507Z,11.95
2023-03-20T12:33:55.010Z,11.81
2023-03-20T12:36:31.459Z,11.67
2023-03-20T12:38:59.490Z,11.56
2023-03-20T12:41:38.936Z,11.41
2023-03-20T12:44:08.862Z,11.48
2023-03-20T12:46:41.792Z,11.32
2023-03-20T12:49:29.420Z,11.17
2023-03-20T12:52:08.546Z,11.07
2023-03-20T12:55:06.294Z,11.02
2023-03-20T12:57:47.520Z,10.93
2023-03-20T13:00:39.105Z,10.92
2023-03-20T13:03:34.030Z,10.94
2023-03-20T13:06:22.054Z,10.93
2023-03-20T13:09:14.523Z,10.89
2023-03-20T13:11:52.282Z,10.91
2023-03-20T13:14:37.504Z,10.92
2023-03-20T13:17:28.860Z,10.80
2023-03-20T13:20:19.956Z,10.84
2023-03-20T13:22:50.797Z,10.74
2023-03-20T13:25:54.121Z,10.74
2023-03-20T13:28:40.395Z,10.67
2023-03-20T13:31:07.357Z,10.57
2023-03-20T13:33:52.592Z,10.50
2023-03-20T13:36:40.096Z,10.44
2023-03-20T13:39:20.716Z,10.29
2023-03-20T13:41:49.512Z,10.30
2023-03-20T13:44:21.109Z,10.26
2023-03-20T13:46:52.161Z,10.21
2023-03-20T13:49:51.664Z,10.32
2023-03-20T13:52:26.136Z,10.27
2023-03-20T13:55:14.630Z,10.30
2023-03-20T13:58:09.052Z,10.37
2023-03-20T14:00:41.630Z,10.21
2023-03-20T14:03:32.457Z,10.32
2023-03-20T14:05:59.516Z,10.10
2023-03-20T14:08:32.678Z,10.15
2023-03-20T14:11:21.427Z,10.19
2023-03-20T14:13:52.234Z,10.06
2023-03-20T14:16:20.396Z,10.14
2023-03-20T14:19:12.200Z,10.13
2023-03-20T14:21:45.134Z,10.05
2023-03-20T14:24:16.014Z,9.86
2023-03-20T14:26:43.794Z,9.77
2023-03-20T14:29:10.670Z,9.68
2023-03-20T14:31:42.086Z,9.72
2023-03-20T14:34:09.609Z,9.69
2023-03-20T14:36:54.652Z,9.68
2023-03-20T14:39:43.846Z,9.64
2023-03-20T14:42:32.380Z,9.60
2023-03-20T14:45:16.106Z,9.55
2023-03-20T14:47:43.447Z,9.46
2023-03-20T14:50:18.887Z,9.03
2023-03-20T14:53:05.602Z,9.36
2023-03-20T14:55:47.164Z,9.26
2023-03-20T14:58:43.801Z,9.20
2023-03-20T15:01:39.670Z,9.11
2023-03-20T15:04:21.549Z,8.92
2023-03-20T15:06:54.013Z,8.96
2023-03-20T15:09:24.647Z,8.76
2023-03-20T15:11:53.902Z,8.74
2023-03-20T15:14:26.488Z,8.72
2023-03-20T15:17:01.245Z,8.61
2023-03-20T15:19:28.874Z,8.26
2023-03-20T15:21:56.558Z,8.46
2023-03-20T15:24:30.353Z,8.30
2023-03-20T15:27:02.118Z,8.37
2023-03-20T15:29:31.235Z,8.38
2023-03-20T15:32:13.329Z,8.30
2023-03-20T15:34:42.636Z,8.30
2023-03-20T15:37:16.243Z,8.21
2023-03-20T15:39:49.258Z,8.16
2023-03-20T15:42:19.728Z,8.13
2023-03-20T15:44:48.851Z,8.07
2023-03-20T15:47:20.997Z,7.92
2023-03-20T15:49:57.100Z,7.85
2023-03-20T15:52:43.803Z,7.82
2023-03-20T15:55:19.997Z,7.65
2023-03-20T15:57:50.395Z,7.57
2023-03-20T16:00:27.418Z,7.28
2023-03-20T16:02:55.185Z,7.37
2023-03-20T16:05:26.458Z,7.32
2023-03-20T16:07:54.384Z,7.28
2023-03-20T16:10:29.254Z,7.23
2023-03-20T16:12:56.994Z,7.09
2023-03-20T16:15:27.839Z,7.00
2023-03-20T16:17:57.753Z,6.97
2023-03-20T16:20:30.002Z,7.04
2023-03-20T16:23:03.271Z,7.04
2023-03-20T16:25:30.431Z,6.90
2023-03-20T16:27:58.654Z,6.97
2023-03-20T16:30:30.790Z,6.97
2023-03-20T16:33:15.898Z,7.00
2023-03-20T16:35:49.233Z,6.64
2023-03-20T16:38:29.375Z,6.96
2023-03-20T16:41:14.318Z,6.93
2023-03-20T16:43:41.401Z,6.91
2023-03-20T16:46:08.637Z,6.89
2023-03-20T16:48:40.147Z,6.88
2023-03-20T16:51:29.458Z,6.90
2023-03-20T16:54:04.106Z,6.84
2023-03-20T16:56:40.553Z,6.79
2023-03-20T16:59:09.281Z,6.77
2023-03-20T17:01:41.361Z,6.74
2023-03-20T17:04:19.042Z,6.70
2023-03-20T17:06:52.774Z,6.67
2023-03-20T17:09:26.452Z,6.63
2023-03-20T17:12:18.302Z,6.73
2023-03-20T17:14:45.746Z,6.62
2023-03-20T17:17:19.536Z,6.67
2023-03-20T17:19:49.808Z,6.67
2023-03-20T17:22:22.352Z,6.68
2023-03-20T17:24:50.605Z,6.69
2023-03-20T17:27:19.233Z,6.68
2023-03-20T17:29:47.529Z,6.70
2023-03-20T17:32:20.355Z,6.49
2023-03-20T17:34:47.311Z,6.73
2023-03-20T17:37:29.825Z,6.76
2023-03-20T17:39:57.417Z,6.68
2023-03-20T17:42:26.976Z,6.62
2023-03-20T17:44:54.022Z,6.59
2023-03-20T17:47:26.661Z,6.47
2023-03-20T17:49:54.782Z,6.57
2023-03-20T17:52:27.463Z,6.46
2023-03-20T17:54:55.103Z,6.51
2023-03-20T17:57:31.441Z,6.37
2023-03-20T17:59:58.724Z,6.46
2023-03-20T18:02:26.242Z,6.43
2023-03-20T18:04:53.284Z,6.23
2023-03-20T18:07:21.175Z,6.22
2023-03-20T18:09:49.319Z,6.34
2023-03-20T18:12:18.478Z,6.24
2023-03-20T18:14:46.954Z,6.24
2023-03-20T18:17:15.792Z,6.24
2023-03-20T18:19:43.455Z,6.25
2023-03-20T18:22:10.723Z,6.21
2023-03-20T18:24:40.111Z,6.24
2023-03-20T18:27:08.048Z,6.06
2023-03-20T18:29:35.050Z,6.20
2023-03-20T18:32:02.005Z,6.17
2023-03-20T18:34:28.961Z,6.16
2023-03-20T18:36:56.185Z,6.13
2023-03-20T18:39:24.699Z,6.12
2023-03-20T18:41:52.005Z,6.07
2023-03-20T18:44:19.247Z,5.86
2023-03-20T18:46:46.497Z,5.74
2023-03-20T18:49:17.671Z,6.06
2023-03-20T18:51:45.552Z,6.07
2023-03-20T18:54:12.800Z,6.01
2023-03-20T18:56:40.804Z,6.00
2023-03-20T18:59:12.497Z,6.02
2023-03-20T19:01:39.679Z,5.99
2023-03-20T19:04:06.814Z,5.92
2023-03-20T19:06:34.084Z,5.93
2023-03-20T19:09:05.141Z,5.89
2023-03-20T19:11:32.375Z,5.75
2023-03-20T19:13:59.447Z,5.88
2023-03-20T19:16:33.374Z,5.85
2023-03-20T19:19:02.671Z,5.80
2023-03-20T19:21:31.542Z,5.75
2023-03-20T19:24:01.188Z,5.65
2023-03-20T19:26:29.989Z,5.59
2023-03-20T19:28:59.198Z,5.51
2023-03-20T19:31:27.078Z,5.56
2023-03-20T19:33:54.726Z,5.62
2023-03-20T19:36:22.153Z,5.65
2023-03-20T19:38:49.270Z,5.63
2023-03-20T19:41:16.284Z,5.64
2023-03-20T19:43:52.501Z,5.58
2023-03-20T19:46:38.086Z,5.48
2023-03-20T19:49:06.634Z,5.54
2023-03-20T19:51:33.920Z,5.58
2023-03-20T19:54:01.013Z,5.59
2023-03-20T19:56:28.040Z,5.57
2023-03-20T19:58:55.034Z,5.59
2023-03-20T20:01:24.978Z,5.67
2023-03-20T20:03:57.803Z,5.62
2023-03-20T20:06:31.272Z,5.74
2023-03-20T20:08:59.335Z,5.29
2023-03-20T20:11:26.366Z,5.74
2023-03-20T20:14:10.397Z,5.73
2023-03-20T20:16:42.567Z,5.69
2023-03-20T20:19:09.753Z,5.73
2023-03-20T20:24:23.747Z,5.64
2023-03-20T20:26:59.680Z,5.62
2023-03-20T20:29:34.507Z,5.58
2023-03-20T20:32:01.987Z,5.59
2023-03-20T20:40:05.128Z,5.62
2023-03-20T20:42:32.287Z,5.65
2023-03-20T20:44:59.345Z,5.63
2023-03-20T20:47:26.322Z,5.53
2023-03-20T20:49:53.877Z,5.58
2023-03-20T20:52:21.172Z,5.48
2023-03-20T20:54:48.363Z,5.55
2023-03-20T20:57:15.931Z,5.51
2023-03-20T20:59:42.862Z,5.49
2023-03-20T21:02:11.751Z,5.49
2023-03-20T21:04:43.030Z,5.47
2023-03-20T21:07:12.087Z,5.44
2023-03-20T21:09:40.535Z,5.44
2023-03-20T21:12:10.594Z,5.45
2023-03-20T21:14:38.073Z,5.42
2023-03-20T21:17:06.587Z,5.39
2023-03-20T21:19:37.278Z,5.37
2023-03-20T21:22:06.295Z,5.33
2023-03-20T21:24:35.232Z,5.10
2023-03-20T21:27:05.229Z,5.40
2023-03-20T21:29:32.227Z,5.40
2023-03-20T21:31:59.197Z,5.41
2023-03-20T21:34:26.728Z,5.42
2023-03-20T21:36:53.753Z,5.38
2023-03-20T21:39:21.081Z,5.43
2023-03-20T21:41:48.121Z,5.20
2023-03-20T21:44:24.661Z,5.44
2023-03-20T21:50:45.938Z,5.28
2023-03-20T21:53:19.536Z,5.42
2023-03-20T22:01:41.948Z,5.39
2023-03-20T22:04:45.197Z,5.46
2023-03-20T22:12:56.000Z,5.34
2023-03-20T22:15:33.934Z,5.39
2023-03-20T22:21:15.949Z,5.43
2023-03-20T22:29:40.924Z,5.56
2023-03-20T22:32:33.076Z,5.58
2023-03-20T22:35:22.559Z,5.61
2023-03-20T22:38:06.122Z,5.29
2023-03-20T22:43:28.095Z,5.78
2023-03-20T22:45:52.651Z,5.69
2023-03-20T22:48:21.847Z,5.54
2023-03-20T22:50:50.053Z,5.67
2023-03-20T22:53:18.417Z,5.68
2023-03-20T22:55:46.930Z,5.55
2023-03-20T22:58:14.851Z,5.75
2023-03-20T23:00:42.949Z,5.73
2023-03-20T23:03:25.730Z,5.86
2023-03-20T23:05:57.331Z,5.87
2023-03-20T23:08:24.751Z,5.87
2023-03-20T23:10:52.098Z,5.76
2023-03-20T23:13:20.514Z,5.88
2023-03-20T23:15:48.671Z,5.84
2023-03-20T23:18:15.828Z,5.87
2023-03-20T23:20:42.872Z,5.88
2023-03-20T23:23:10.003Z,5.64
2023-03-20T23:25:39.572Z,5.56
2023-03-20T23:28:08.884Z,5.86
2023-03-20T23:31:07.559Z,5.91
2023-03-20T23:33:23.542Z,5.82
2023-03-20T23:36:01.301Z,5.75
2023-03-20T23:38:32.308Z,5.82
2023-03-20T23:40:59.264Z,5.74
2023-03-20T23:43:26.452Z,5.72
2023-03-20T23:45:53.656Z,5.72
2023-03-20T23:48:21.010Z,5.83
2023-03-20T23:50:53.159Z,5.75
2023-03-20T23:53:21.313Z,5.84
2023-03-20T23:55:52.107Z,5.80
2023-03-20T23:58:19.888Z,5.77
